Time;durP1;ratioP1;P1;durP2;ratioP2;P2;SDS_P1;SDS_P2;PMS_P1;PMS_P2;Temp;Humidity;BMP_temperature;BMP_pressure;BME280_temperature;BME280_humidity;BME280_pressure;Samples;Min_cycle;Max_cycle;Signal;HPM_P1;HPM_P2
2023/02/16 00:06:04;;;;;;;25.23;12.68;;;6.40;15.00;;;;;;20596456;28;20099;-42
2023/02/16 00:16:25;;;;;;;23.65;11.73;;;6.40;15.90;;;;;;20598575;28;20376;-41
2023/02/16 00:26:47;;;;;;;30.95;13.90;;;6.30;16.60;;;;;;20606146;28;20195;-42
2023/02/16 00:37:10;;;;;;;23.67;13.15;;;6.20;20.60;;;;;;20597391;28;20062;-41
2023/02/16 00:47:36;;;;;;;28.50;13.23;;;6.00;29.80;;;;;;20615892;28;20137;-41
2023/02/16 00:58:14;;;;;;;28.52;14.10;;;6.00;37.30;;;;;;20616718;28;20050;-42
2023/02/16 01:19:14;;;;;;;22.38;12.40;;;6.00;41.30;;;;;;20581851;28;20073;-41
2023/02/16 01:29:35;;;;;;;25.27;15.57;;;6.00;43.90;;;;;;20620750;28;20091;-41
2023/02/16 01:39:56;;;;;;;26.95;15.88;;;6.00;46.50;;;;;;20626531;28;20387;-41
2023/02/16 01:50:20;;;;;;;25.10;13.93;;;6.20;39.40;;;;;;20633532;28;20133;-41
2023/02/16 02:00:50;;;;;;;31.02;15.02;;;6.20;42.10;;;;;;20624536;28;20539;-41
2023/02/16 02:11:23;;;;;;;27.17;14.07;;;6.30;36.20;;;;;;20618552;28;20172;-41
2023/02/16 02:32:45;;;;;;;28.83;14.13;;;6.40;28.40;;;;;;20638768;28;20038;-42
2023/02/16 02:43:29;;;;;;;26.40;15.93;;;6.40;28.70;;;;;;20664477;28;20159;-42
2023/02/16 03:04:45;;;;;;;23.92;12.98;;;6.40;25.30;;;;;;20644015;28;20160;-41
2023/02/16 03:15:07;;;;;;;29.52;13.73;;;6.30;30.00;;;;;;20656535;28;20133;-41
2023/02/16 03:36:12;;;;;;;27.02;14.98;;;6.40;31.50;;;;;;20649110;28;20343;-41
2023/02/16 03:46:33;;;;;;;20.65;12.75;;;6.40;29.90;;;;;;20657873;28;20512;-42
2023/02/16 03:56:54;;;;;;;21.88;11.05;;;6.50;29.70;;;;;;20646319;28;20176;-42
2023/02/16 04:07:15;;;;;;;20.67;11.38;;;6.50;27.40;;;;;;20622524;28;20133;-41
2023/02/16 04:17:36;;;;;;;26.77;13.88;;;6.60;26.40;;;;;;20626279;28;20054;-41
2023/02/16 04:27:57;;;;;;;22.90;12.38;;;6.60;24.60;;;;;;20652482;28;20069;-41
2023/02/16 04:38:18;;;;;;;27.08;14.32;;;6.70;25.10;;;;;;20643473;28;20133;-41
2023/02/16 04:48:39;;;;;;;27.88;13.13;;;6.70;27.40;;;;;;20636630;28;20104;-42
2023/02/16 04:59:00;;;;;;;25.52;14.45;;;6.60;32.00;;;;;;20625860;28;20236;-41
2023/02/16 05:09:21;;;;;;;27.00;13.27;;;6.50;36.90;;;;;;20653788;28;20204;-42
2023/02/16 05:19:45;;;;;;;29.98;14.25;;;6.60;40.90;;;;;;20659920;28;20156;-41
2023/02/16 05:30:06;;;;;;;33.90;16.83;;;6.60;46.60;;;;;;20649213;28;20608;-41
2023/02/16 05:40:27;;;;;;;26.23;14.30;;;6.60;48.70;;;;;;20649077;28;20137;-41
2023/02/16 05:50:48;;;;;;;24.63;12.27;;;6.60;47.50;;;;;;20671478;28;20065;-41
2023/02/16 06:01:09;;;;;;;39.80;15.02;;;6.60;50.10;;;;;;20664469;28;20133;-41
2023/02/16 06:11:37;;;;;;;26.02;13.27;;;6.70;48.20;;;;;;20627570;28;20175;-41
2023/02/16 06:21:58;;;;;;;28.60;13.57;;;6.70;51.00;;;;;;20635545;28;20030;-41
2023/02/16 06:32:19;;;;;;;23.35;12.50;;;6.80;45.00;;;;;;20637719;28;20065;-41
2023/02/16 06:42:41;;;;;;;25.40;15.10;;;6.80;47.40;;;;;;20622333;28;20204;-42
2023/02/16 06:53:02;;;;;;;21.67;13.60;;;6.80;45.20;;;;;;20626167;28;20113;-41
2023/02/16 07:03:23;;;;;;;25.73;16.42;;;6.90;43.50;;;;;;20628934;28;20661;-42
2023/02/16 07:13:45;;;;;;;27.48;13.77;;;7.00;42.90;;;;;;20623489;28;20180;-41
2023/02/16 07:24:06;;;;;;;19.70;13.73;;;7.00;41.70;;;;;;20601300;28;20034;-42
2023/02/16 07:34:27;;;;;;;33.17;13.50;;;7.10;38.80;;;;;;20617172;28;20029;-41
2023/02/16 07:44:48;;;;;;;25.58;15.93;;;7.00;43.90;;;;;;20593363;28;20109;-42
2023/02/16 07:55:10;;;;;;;26.27;12.55;;;7.10;42.70;;;;;;20606956;28;20161;-41
2023/02/16 08:05:33;;;;;;;27.92;14.30;;;7.10;49.40;;;;;;20622464;28;20180;-41
2023/02/16 08:15:54;;;;;;;23.73;12.85;;;7.10;54.20;;;;;;20610827;28;20508;-42
2023/02/16 08:25:57;;;;;;;19.75;13.13;;;7.20;55.30;;;;;;20471436;28;20134;-42
2023/02/16 08:35:58;;;;;;;26.13;13.32;;;7.10;66.70;;;;;;20483786;28;20425;-42
2023/02/16 08:45:59;;;;;;;28.23;13.50;;;7.20;61.60;;;;;;20477433;28;21562;-42
2023/02/16 08:56:02;;;;;;;26.63;15.18;;;7.30;65.10;;;;;;20476412;28;20122;-41
2023/02/16 09:06:04;;;;;;;24.35;14.80;;;7.20;94.70;;;;;;20480956;28;20051;-41
2023/02/16 09:16:11;;;;;;;26.52;16.90;;;7.10;99.90;;;;;;20489767;28;20042;-41
2023/02/16 09:26:14;;;;;;;31.80;16.73;;;7.00;99.90;;;;;;20535744;28;20073;-41
2023/02/16 09:36:36;;;;;;;31.13;18.55;;;6.90;99.90;;;;;;20479221;28;20098;-41
2023/02/16 09:46:39;;;;;;;28.95;16.17;;;6.90;99.90;;;;;;20529216;28;20834;-41
2023/02/16 09:57:19;;;;;;;30.00;16.25;;;7.00;99.90;;;;;;20459153;28;20125;-41
2023/02/16 10:08:04;;;;;;;34.45;18.00;;;7.20;99.90;;;;;;20507216;28;20494;-41
2023/02/16 10:18:32;;;;;;;30.73;17.00;;;7.40;99.90;;;;;;20504006;28;20669;-41
2023/02/16 10:28:56;;;;;;;33.83;16.50;;;7.60;99.90;;;;;;20445994;28;20126;-41
2023/02/16 10:39:25;;;;;;;28.25;17.67;;;7.80;99.90;;;;;;20450567;28;20192;-42
2023/02/16 10:49:48;;;;;;;38.78;18.15;;;7.90;99.90;;;;;;20511026;28;20205;-41
2023/02/16 11:00:15;;;;;;;25.00;16.27;;;8.10;99.90;;;;;;20522886;28;20046;-41
2023/02/16 11:10:49;;;;;;;36.37;18.80;;;8.20;99.90;;;;;;20521603;28;20410;-41
2023/02/16 11:21:11;;;;;;;30.85;15.68;;;8.30;99.90;;;;;;20510981;28;20149;-41
2023/02/16 11:31:39;;;;;;;33.40;15.73;;;8.50;99.90;;;;;;20515663;28;20034;-41
2023/02/16 11:42:07;;;;;;;28.37;18.13;;;8.70;99.90;;;;;;20425789;28;20511;-41
2023/02/16 11:52:31;;;;;;;27.40;14.10;;;9.00;99.90;;;;;;20472331;28;20142;-42
2023/02/16 12:03:10;;;;;;;28.55;14.45;;;9.20;99.90;;;;;;20445293;28;20122;-42
2023/02/16 12:14:03;;;;;;;25.92;12.95;;;9.40;99.90;;;;;;20480266;28;20531;-42
2023/02/16 12:24:45;;;;;;;20.80;11.32;;;10.00;99.90;;;;;;20439877;28;20178;-42
2023/02/16 12:35:12;;;;;;;25.63;13.38;;;10.30;99.90;;;;;;20477594;28;20050;-42
2023/02/16 12:45:39;;;;;;;22.38;13.73;;;10.70;94.40;;;;;;20489428;28;20544;-42
2023/02/16 12:56:06;;;;;;;20.27;10.07;;;10.80;71.30;;;;;;20498312;28;20153;-42
2023/02/16 13:06:30;;;;;;;21.23;10.88;;;11.70;57.90;;;;;;20489194;28;20199;-42
2023/02/16 13:16:54;;;;;;;18.63;8.45;;;11.70;34.70;;;;;;20486293;28;20106;-42
2023/02/16 13:27:46;;;;;;;15.90;8.90;;;11.50;32.90;;;;;;20471987;28;20179;-42
2023/02/16 13:38:39;;;;;;;20.45;9.52;;;11.40;27.70;;;;;;20487072;28;20366;-42
2023/02/16 13:49:01;;;;;;;17.60;8.27;;;11.30;29.30;;;;;;20483275;28;20112;-42
2023/02/16 13:59:22;;;;;;;14.10;6.93;;;11.30;28.80;;;;;;20486410;28;20043;-42
2023/02/16 14:09:49;;;;;;;20.00;10.52;;;11.30;26.60;;;;;;20482884;28;20126;-42
2023/02/16 14:20:14;;;;;;;16.55;7.88;;;11.10;31.00;;;;;;20489721;28;20550;-42
2023/02/16 14:30:48;;;;;;;17.83;8.10;;;11.20;33.70;;;;;;20482449;28;20145;-42
2023/02/16 14:41:21;;;;;;;8.95;4.90;;;11.00;37.80;;;;;;20423715;28;20047;-42
2023/02/16 14:52:07;;;;;;;11.50;5.72;;;11.10;25.00;;;;;;20466141;28;20084;-42
2023/02/16 15:02:32;;;;;;;13.27;5.22;;;11.20;22.60;;;;;;20468256;28;20495;-42
2023/02/16 15:12:57;;;;;;;12.50;6.05;;;11.10;26.10;;;;;;20484290;28;20136;-41
2023/02/16 15:23:22;;;;;;;12.15;7.18;;;10.70;64.70;;;;;;20476641;28;20042;-42
2023/02/16 15:33:56;;;;;;;12.98;8.07;;;10.40;99.90;;;;;;20479150;28;20129;-42
2023/02/16 15:44:35;;;;;;;18.23;9.25;;;10.10;99.90;;;;;;20476600;28;21656;-41
2023/02/16 15:54:57;;;;;;;18.33;9.00;;;9.90;99.90;;;;;;20493763;28;20780;-42
2023/02/16 16:05:21;;;;;;;13.45;8.38;;;9.70;99.90;;;;;;20488161;28;20076;-41
2023/02/16 16:15:46;;;;;;;15.05;8.57;;;9.70;99.90;;;;;;20493439;28;20114;-41
2023/02/16 16:26:18;;;;;;;16.50;9.93;;;9.80;99.90;;;;;;20487892;28;20079;-42
2023/02/16 16:36:53;;;;;;;30.15;11.95;;;9.70;99.90;;;;;;20492461;28;20150;-41
2023/02/16 16:47:25;;;;;;;20.67;10.30;;;9.70;99.90;;;;;;20491963;28;20063;-41
2023/02/16 16:57:48;;;;;;;16.02;8.40;;;9.70;99.90;;;;;;20499623;28;20043;-42
2023/02/16 17:08:10;;;;;;;16.30;9.45;;;9.70;99.90;;;;;;20476387;28;20137;-41
2023/02/16 17:18:31;;;;;;;15.25;9.40;;;9.70;99.90;;;;;;20429042;28;20031;-41
2023/02/16 17:28:52;;;;;;;14.77;9.45;;;9.70;99.90;;;;;;20497198;28;20035;-41
2023/02/16 17:39:13;;;;;;;17.42;8.65;;;9.70;99.90;;;;;;20500240;28;20756;-42
2023/02/16 17:49:34;;;;;;;20.85;10.00;;;9.60;99.90;;;;;;20506720;28;20075;-41
2023/02/16 17:59:55;;;;;;;15.95;9.43;;;9.60;99.90;;;;;;20452057;28;20066;-41
2023/02/16 18:10:30;;;;;;;17.00;10.48;;;9.60;99.90;;;;;;20459864;28;20035;-41
2023/02/16 18:20:51;;;;;;;21.65;11.45;;;9.60;99.90;;;;;;20484499;28;20197;-41
2023/02/16 18:31:13;;;;;;;13.20;8.30;;;9.60;99.90;;;;;;20490576;28;20076;-41
2023/02/16 18:41:35;;;;;;;16.52;9.80;;;9.60;99.90;;;;;;20498776;28;20364;-41
2023/02/16 18:51:56;;;;;;;12.27;7.63;;;9.70;99.90;;;;;;20489853;28;20523;-41
2023/02/16 19:02:17;;;;;;;12.18;6.70;;;9.70;99.90;;;;;;20478410;28;20207;-41
2023/02/16 19:12:39;;;;;;;12.70;6.78;;;9.70;99.90;;;;;;20499970;28;20070;-41
2023/02/16 19:23:00;;;;;;;9.32;4.90;;;9.70;99.90;;;;;;20476844;28;20153;-41
2023/02/16 19:33:21;;;;;;;8.93;5.50;;;9.70;99.90;;;;;;20479392;28;20089;-41
2023/02/16 19:43:43;;;;;;;9.20;5.68;;;9.70;99.90;;;;;;20473353;28;20252;-41
2023/02/16 19:54:03;;;;;;;8.05;5.22;;;9.70;99.90;;;;;;20474684;28;20121;-41
2023/02/16 20:04:25;;;;;;;7.28;3.88;;;9.80;99.90;;;;;;20476506;28;20122;-41
2023/02/16 20:14:46;;;;;;;7.13;4.45;;;9.90;99.90;;;;;;20474972;28;22353;-41
2023/02/16 20:25:07;;;;;;;7.43;5.18;;;9.80;99.90;;;;;;20488690;28;20090;-41
2023/02/16 20:35:28;;;;;;;6.45;4.15;;;9.80;99.90;;;;;;20483967;28;20102;-41
2023/02/16 20:45:49;;;;;;;6.88;4.07;;;9.90;99.90;;;;;;20484230;28;20145;-41
2023/02/16 20:56:21;;;;;;;8.93;5.90;;;9.90;99.90;;;;;;20462701;28;20266;-42
2023/02/16 21:06:42;;;;;;;10.15;5.65;;;9.90;99.90;;;;;;20485025;28;20043;-42
2023/02/16 21:17:03;;;;;;;11.57;5.60;;;9.90;99.90;;;;;;20466380;28;20116;-42
2023/02/16 21:27:24;;;;;;;9.57;6.25;;;10.00;99.90;;;;;;20477845;28;20075;-42
2023/02/16 21:37:45;;;;;;;9.23;6.05;;;10.00;99.90;;;;;;20467604;28;20929;-41
2023/02/16 21:58:46;;;;;;;10.20;6.43;;;10.00;99.90;;;;;;20465590;28;20063;-42
2023/02/16 22:09:10;;;;;;;13.70;5.38;;;10.00;99.90;;;;;;20475019;28;20047;-41
2023/02/16 22:19:32;;;;;;;11.30;6.22;;;10.00;99.90;;;;;;20480608;28;20083;-42
2023/02/16 22:29:53;;;;;;;10.10;5.00;;;10.00;99.90;;;;;;20459158;28;20185;-41
2023/02/16 22:40:14;;;;;;;10.95;6.53;;;10.00;99.90;;;;;;20470403;28;20203;-42
2023/02/16 22:50:35;;;;;;;12.25;6.80;;;10.00;99.90;;;;;;20479519;28;20078;-42
2023/02/16 23:00:56;;;;;;;16.33;8.27;;;10.00;99.90;;;;;;20478671;28;20506;-42
2023/02/16 23:11:17;;;;;;;12.77;6.32;;;10.00;99.90;;;;;;20474945;28;20130;-42
2023/02/16 23:21:39;;;;;;;13.02;7.15;;;9.90;99.90;;;;;;20460254;28;20625;-42
2023/02/16 23:32:00;;;;;;;13.43;5.88;;;10.00;99.90;;;;;;20459709;28;20202;-42
2023/02/16 23:42:21;;;;;;;16.55;8.23;;;10.00;99.90;;;;;;20470809;28;20338;-42
2023/02/16 23:52:42;;;;;;;12.80;6.65;;;10.00;99.90;;;;;;20462991;28;20134;-42
